createdAt,value
2023-05-23T00:02:17.045Z,101639.66
2023-05-23T00:04:45.151Z,101641.06
2023-05-23T00:07:12.920Z,101644.25
2023-05-23T00:09:40.675Z,101652.53
2023-05-23T00:12:09.034Z,101649.38
2023-05-23T00:14:40.173Z,101646.44
2023-05-23T00:17:10.596Z,101646.78
2023-05-23T00:19:38.688Z,101649.81
2023-05-23T00:22:06.573Z,101642.41
2023-05-23T00:24:34.497Z,101651.47
2023-05-23T00:27:02.277Z,101656.34
2023-05-23T00:29:30.434Z,101654.59
2023-05-23T00:31:59.467Z,101657.66
2023-05-23T00:34:27.179Z,101655.03
2023-05-23T00:36:54.963Z,101658.31
2023-05-23T00:39:22.643Z,101663.94
2023-05-23T00:41:52.999Z,101663.94
2023-05-23T00:44:22.003Z,101669.41
2023-05-23T00:46:53.652Z,101674.84
2023-05-23T00:49:23.525Z,101672.22
2023-05-23T00:51:52.777Z,101668.09
2023-05-23T00:54:27.200Z,101670.06
2023-05-23T00:56:56.131Z,101667.03
2023-05-23T00:59:25.559Z,101674.44
2023-05-23T01:01:55.475Z,101672.22
2023-05-23T01:04:27.026Z,101676.47
2023-05-23T01:06:55.730Z,101673.31
2023-05-23T01:09:26.292Z,101669.06
2023-05-23T01:12:17.193Z,101672.47
2023-05-23T01:14:50.889Z,101655.03
2023-05-23T01:17:24.910Z,101669.19
2023-05-23T01:20:01.107Z,101668.53
2023-05-23T01:22:42.788Z,101657.66
2023-05-23T01:25:18.637Z,101655.69
2023-05-23T01:27:54.030Z,101655.25
2023-05-23T01:30:22.435Z,101664.81
2023-05-23T01:32:54.059Z,101666.66
2023-05-23T01:35:27.240Z,101667.22
2023-05-23T01:37:55.950Z,101668.41
2023-05-23T01:40:25.993Z,101661.56
2023-05-23T01:42:57.331Z,101663.72
2023-05-23T01:45:27.709Z,101674.50
2023-05-23T01:47:56.928Z,101666.03
2023-05-23T01:50:25.960Z,101668.09
2023-05-23T01:52:56.009Z,101660.38
2023-05-23T01:55:26.623Z,101669.28
2023-05-23T01:57:57.710Z,101667.28
2023-05-23T02:00:26.102Z,101669.25
2023-05-23T02:02:54.153Z,101663.88
2023-05-23T02:05:22.250Z,101668.84
2023-05-23T02:07:50.411Z,101677.25
2023-05-23T02:10:18.850Z,101677.13
2023-05-23T02:12:46.769Z,101676.97
2023-05-23T02:15:17.390Z,101679.63
2023-05-23T02:17:45.461Z,101681.72
2023-05-23T02:20:14.503Z,101669.19
2023-05-23T02:22:42.332Z,101674.41
2023-05-23T02:25:10.805Z,101671.34
2023-05-23T02:27:40.599Z,101681.09
2023-05-23T02:30:09.479Z,101683.56
2023-05-23T02:32:38.642Z,101692.28
2023-05-23T02:35:07.555Z,101696.13
2023-05-23T02:37:35.827Z,101696.97
2023-05-23T02:40:07.650Z,101701.66
2023-05-23T02:42:37.314Z,101705.91
2023-05-23T02:45:05.773Z,101704.38
2023-05-23T02:47:33.572Z,101705.06
2023-05-23T02:50:02.693Z,101715.00
2023-05-23T02:52:31.892Z,101699.22
2023-05-23T02:54:59.708Z,101718.41
2023-05-23T02:57:28.044Z,101715.91
2023-05-23T02:59:58.487Z,101714.16
2023-05-23T03:02:26.952Z,101707.59
2023-05-23T03:04:56.142Z,101696.97
2023-05-23T03:07:28.683Z,101708.72
2023-05-23T03:09:57.278Z,101698.34
2023-05-23T03:12:25.238Z,101697.91
2023-05-23T03:14:54.510Z,101691.31
2023-05-23T03:17:22.750Z,101695.25
2023-05-23T03:19:51.270Z,101687.97
2023-05-23T03:22:20.303Z,101691.44
2023-05-23T03:24:49.982Z,101693.56
2023-05-23T03:27:17.851Z,101691.53
2023-05-23T03:29:48.186Z,101696.00
2023-05-23T03:32:16.749Z,101700.09
2023-05-23T03:34:44.692Z,101717.19
2023-05-23T03:37:13.069Z,101720.06
2023-05-23T03:39:41.016Z,101724.97
2023-05-23T03:42:10.485Z,101741.50
2023-05-23T03:44:38.352Z,101726.38
2023-05-23T03:47:08.251Z,101745.00
2023-05-23T03:49:38.876Z,101747.53
2023-05-23T03:52:06.886Z,101757.25
2023-05-23T03:54:35.555Z,101755.38
2023-05-23T03:57:04.148Z,101755.63
2023-05-23T03:59:33.505Z,101755.88
2023-05-23T04:02:01.910Z,101754.75
2023-05-23T04:04:31.137Z,101761.59
2023-05-23T04:07:01.711Z,101764.31
2023-05-23T04:09:30.125Z,101761.66
2023-05-23T04:11:58.947Z,101757.00
2023-05-23T04:14:27.775Z,101761.47
2023-05-23T04:16:58.205Z,101765.06
2023-05-23T04:19:26.223Z,101761.53
2023-05-23T04:21:54.877Z,101763.00
2023-05-23T04:24:22.964Z,101753.97
2023-05-23T04:26:50.787Z,101760.88
2023-05-23T04:29:18.706Z,101752.13
2023-05-23T04:31:46.898Z,101751.00
2023-05-23T04:34:17.336Z,101749.59
2023-05-23T04:36:45.620Z,101768.22
2023-05-23T04:39:14.117Z,101770.28
2023-05-23T04:41:51.331Z,101760.66
2023-05-23T04:44:26.682Z,101756.59
2023-05-23T04:47:11.792Z,101753.69
2023-05-23T04:49:55.116Z,101747.94
2023-05-23T04:52:22.827Z,101752.72
2023-05-23T04:54:51.173Z,101745.88
2023-05-23T04:57:19.150Z,101740.75
2023-05-23T04:59:46.865Z,101741.78
2023-05-23T05:02:15.358Z,101743.84
2023-05-23T05:04:43.222Z,101755.16
2023-05-23T05:07:12.997Z,101757.56
2023-05-23T05:09:41.705Z,101753.91
2023-05-23T05:12:12.245Z,101756.94
2023-05-23T05:14:41.051Z,101760.72
2023-05-23T05:17:08.972Z,101769.41
2023-05-23T05:19:45.571Z,101775.25
2023-05-23T05:22:15.278Z,101786.25
2023-05-23T05:24:43.549Z,101778.75
2023-05-23T05:27:12.023Z,101780.22
2023-05-23T05:29:39.787Z,101776.38
2023-05-23T05:32:08.901Z,101783.41
2023-05-23T05:34:37.867Z,101781.91
2023-05-23T05:37:06.191Z,101781.00
2023-05-23T05:39:35.668Z,101782.09
2023-05-23T05:42:04.367Z,101787.13
2023-05-23T05:44:33.038Z,101792.19
2023-05-23T05:47:00.714Z,101789.94
2023-05-23T05:49:29.414Z,101802.66
2023-05-23T05:51:57.876Z,101806.94
2023-05-23T05:54:25.663Z,101811.75
2023-05-23T05:56:56.205Z,101803.50
2023-05-23T05:59:23.968Z,101797.63
2023-05-23T06:01:52.918Z,101804.41
2023-05-23T06:04:20.926Z,101807.69
2023-05-23T06:06:50.179Z,101807.59
2023-05-23T06:09:18.182Z,101801.69
2023-05-23T06:11:46.848Z,101800.44
2023-05-23T06:14:16.156Z,101813.13
2023-05-23T06:16:46.911Z,101804.72
2023-05-23T06:19:14.957Z,101811.59
2023-05-23T06:21:42.994Z,101818.09
2023-05-23T06:24:12.427Z,101823.06
2023-05-23T06:26:40.249Z,101837.44
2023-05-23T06:29:09.587Z,101841.31
2023-05-23T06:31:38.991Z,101835.56
2023-05-23T06:34:06.851Z,101838.09
2023-05-23T06:36:35.016Z,101840.44
2023-05-23T06:39:02.782Z,101842.25
2023-05-23T06:41:31.771Z,101840.22
2023-05-23T06:43:59.729Z,101848.31
2023-05-23T06:46:31.191Z,101858.69
2023-05-23T06:49:13.759Z,101861.63
2023-05-23T06:51:43.000Z,101869.06
2023-05-23T06:54:11.181Z,101870.91
2023-05-23T06:56:39.247Z,101874.53
2023-05-23T06:59:07.683Z,101879.47
2023-05-23T07:01:37.113Z,101882.47
2023-05-23T07:04:07.049Z,101895.28
2023-05-23T07:06:36.813Z,101902.28
2023-05-23T07:09:06.059Z,101907.16
2023-05-23T07:11:35.304Z,101905.19
2023-05-23T07:14:03.677Z,101906.94
2023-05-23T07:16:41.486Z,101914.44
2023-05-23T07:19:11.114Z,101913.72
2023-05-23T07:21:45.221Z,101921.22
2023-05-23T07:24:15.392Z,101931.59
2023-05-23T07:26:43.637Z,101938.41
2023-05-23T07:29:11.552Z,101944.94
2023-05-23T07:31:39.753Z,101950.22
2023-05-23T07:34:08.890Z,101948.50
2023-05-23T07:36:47.575Z,101947.34
2023-05-23T07:39:21.983Z,101955.19
2023-05-23T07:41:51.510Z,101965.53
2023-05-23T07:44:23.206Z,101972.13
2023-05-23T07:46:53.109Z,101965.56
2023-05-23T07:49:21.990Z,101979.81
2023-05-23T07:51:51.403Z,101985.44
2023-05-23T07:54:19.211Z,101987.72
2023-05-23T07:56:47.255Z,101996.56
2023-05-23T07:59:15.559Z,101998.69
2023-05-23T08:01:44.822Z,102008.94
2023-05-23T08:04:17.246Z,102012.28
2023-05-23T08:07:04.822Z,102000.28
2023-05-23T08:09:53.313Z,102005.47
2023-05-23T08:12:22.156Z,102009.94
2023-05-23T08:14:56.041Z,102013.50
2023-05-23T08:17:26.893Z,102015.72
2023-05-23T08:19:54.806Z,102026.38
2023-05-23T08:22:24.056Z,102021.81
2023-05-23T08:24:52.148Z,102034.59
2023-05-23T08:27:20.525Z,102032.88
2023-05-23T08:29:52.768Z,102033.91
2023-05-23T08:32:21.051Z,102034.41
2023-05-23T08:34:49.468Z,102045.91
2023-05-23T08:37:17.421Z,102045.69
2023-05-23T08:39:46.912Z,102035.09
2023-05-23T08:42:33.431Z,102033.91
2023-05-23T08:45:01.743Z,102035.84
2023-05-23T08:47:33.066Z,102026.91
2023-05-23T08:50:05.102Z,102038.72
2023-05-23T08:52:36.335Z,102034.66
2023-05-23T08:55:06.631Z,102031.84
2023-05-23T08:57:37.003Z,102038.69
2023-05-23T09:00:21.437Z,102043.34
2023-05-23T09:02:49.559Z,102055.41
2023-05-23T09:05:33.819Z,102055.28
2023-05-23T09:08:01.870Z,102056.19
2023-05-23T09:10:31.587Z,102055.28
2023-05-23T09:13:01.415Z,102050.59
2023-05-23T09:15:31.736Z,102059.53
2023-05-23T09:18:03.282Z,102053.56
2023-05-23T09:20:32.770Z,102057.28
2023-05-23T09:23:07.089Z,102061.50
2023-05-23T09:25:40.917Z,102074.16
2023-05-23T09:28:10.358Z,102074.31
2023-05-23T09:30:40.695Z,102082.91
2023-05-23T09:33:08.976Z,102084.66
2023-05-23T09:35:37.056Z,102082.91
2023-05-23T09:38:04.831Z,102095.03
2023-05-23T09:40:33.576Z,102095.25
2023-05-23T09:43:07.518Z,102094.88
2023-05-23T09:45:36.117Z,102098.53
2023-05-23T09:48:04.131Z,102104.19
2023-05-23T09:50:34.385Z,102105.06
2023-05-23T09:53:04.663Z,102121.69
2023-05-23T09:55:32.386Z,102109.16
2023-05-23T09:58:01.851Z,102114.94
2023-05-23T10:00:33.124Z,102120.56
2023-05-23T10:03:12.421Z,102116.34
2023-05-23T10:05:45.544Z,102121.78
2023-05-23T10:08:16.006Z,102121.50
2023-05-23T10:11:38.046Z,102125.56
2023-05-23T10:14:08.461Z,102134.81
2023-05-23T10:16:45.521Z,102136.75
2023-05-23T10:19:21.616Z,102139.59
2023-05-23T10:21:51.964Z,102139.59
2023-05-23T10:24:20.831Z,102140.66
2023-05-23T10:26:49.703Z,102141.56
2023-05-23T10:29:17.445Z,102129.31
2023-05-23T10:31:47.607Z,102122.59
2023-05-23T10:34:22.689Z,102122.03
2023-05-23T10:36:58.139Z,102115.81
2023-05-23T10:39:54.339Z,102114.00
2023-05-23T10:42:36.275Z,102101.63
2023-05-23T10:45:16.077Z,102096.16
2023-05-23T10:47:45.636Z,102098.97
2023-05-23T10:50:14.900Z,102094.38
2023-05-23T10:52:43.348Z,102103.47
2023-05-23T10:55:17.596Z,102106.66
2023-05-23T10:57:45.790Z,102113.41
2023-05-23T11:00:16.546Z,102113.34
2023-05-23T11:02:55.687Z,102107.44
2023-05-23T11:05:27.977Z,102115.06
2023-05-23T11:08:09.289Z,102109.13
2023-05-23T11:11:01.568Z,102116.38
2023-05-23T11:14:05.106Z,102118.94
2023-05-23T11:16:41.095Z,102119.88
2023-05-23T11:19:28.227Z,102110.31
2023-05-23T11:22:00.787Z,102103.94
2023-05-23T11:24:51.979Z,102094.91
2023-05-23T11:27:27.234Z,102090.00
2023-05-23T11:30:08.270Z,102095.00
2023-05-23T11:32:37.203Z,102097.53
2023-05-23T11:35:08.383Z,102102.97
2023-05-23T11:37:37.112Z,102105.31
2023-05-23T11:40:26.984Z,102100.34
2023-05-23T11:42:54.920Z,102110.50
2023-05-23T11:45:23.454Z,102117.06
2023-05-23T11:47:51.407Z,102115.59
2023-05-23T11:50:21.576Z,102113.31
2023-05-23T11:52:52.036Z,102107.97
2023-05-23T11:55:21.051Z,102100.13
2023-05-23T11:57:49.543Z,102093.28
2023-05-23T12:00:18.906Z,102099.59
2023-05-23T12:02:48.244Z,102100.25
2023-05-23T12:05:16.451Z,102085.97
2023-05-23T12:07:47.139Z,102085.06
2023-05-23T12:10:16.702Z,102078.44
2023-05-23T12:12:47.776Z,102065.50
2023-05-23T12:15:16.239Z,102073.44
2023-05-23T12:17:46.082Z,102060.47
2023-05-23T12:20:14.444Z,102061.97
2023-05-23T12:22:43.188Z,102063.34
2023-05-23T12:25:13.253Z,102063.72
2023-05-23T12:27:44.023Z,102073.41
2023-05-23T12:30:14.918Z,102070.94
2023-05-23T12:32:44.326Z,102071.78
2023-05-23T12:35:14.253Z,102070.94
2023-05-23T12:37:43.038Z,102060.38
2023-05-23T12:40:14.295Z,102062.63
2023-05-23T12:42:48.182Z,102056.00
2023-05-23T12:45:16.241Z,102037.00
2023-05-23T12:47:44.132Z,102040.31
2023-05-23T12:50:13.417Z,102039.19
2023-05-23T12:52:41.642Z,102044.47
2023-05-23T12:55:10.835Z,102030.47
2023-05-23T12:57:40.079Z,102026.81
2023-05-23T13:00:09.357Z,102026.22
2023-05-23T13:02:37.506Z,102037.25
2023-05-23T13:05:05.826Z,102024.78
2023-05-23T13:07:33.904Z,102034.69
2023-05-23T13:10:02.804Z,102022.34
2023-05-23T13:12:30.975Z,102025.94
2023-05-23T13:15:00.273Z,102029.91
2023-05-23T13:17:28.138Z,102023.22
2023-05-23T13:19:56.420Z,102027.13
2023-05-23T13:22:24.158Z,102031.19
2023-05-23T13:24:52.316Z,102037.34
2023-05-23T13:27:20.241Z,102036.69
2023-05-23T13:29:48.153Z,102029.84
2023-05-23T13:32:17.487Z,102030.78
2023-05-23T13:34:45.352Z,102039.88
2023-05-23T13:37:13.051Z,102043.56
2023-05-23T13:39:40.989Z,102047.06
2023-05-23T13:42:09.385Z,102038.94
2023-05-23T13:44:37.556Z,102031.09
2023-05-23T13:47:13.390Z,102026.59
2023-05-23T13:49:43.372Z,102021.13
2023-05-23T13:52:11.725Z,102019.38
2023-05-23T13:54:39.622Z,102030.84
2023-05-23T13:57:07.769Z,102029.53
2023-05-23T13:59:35.883Z,102032.22
2023-05-23T14:02:03.764Z,102016.97
2023-05-23T14:04:31.552Z,102011.72
2023-05-23T14:07:00.842Z,102017.75
2023-05-23T14:09:28.693Z,102021.72
2023-05-23T14:11:56.712Z,102012.06
2023-05-23T14:14:24.745Z,102010.44
2023-05-23T14:16:52.799Z,102015.72
2023-05-23T14:19:21.718Z,102006.59
2023-05-23T14:21:49.587Z,102004.81
2023-05-23T14:24:19.192Z,101996.69
2023-05-23T14:26:47.423Z,102017.00
2023-05-23T14:29:15.182Z,102014.59
2023-05-23T14:31:43.019Z,102007.88
2023-05-23T14:34:11.344Z,102010.19
2023-05-23T14:36:39.196Z,102009.94
2023-05-23T14:39:10.470Z,102008.09
2023-05-23T14:41:40.701Z,102002.06
2023-05-23T14:44:08.701Z,102013.13
2023-05-23T14:46:36.510Z,102013.63
2023-05-23T14:49:04.323Z,102012.13
2023-05-23T14:51:46.263Z,102016.09
2023-05-23T14:54:16.993Z,102032.50
2023-05-23T14:56:46.439Z,102027.09
2023-05-23T14:59:15.192Z,102024.75
2023-05-23T15:01:43.075Z,102026.28
2023-05-23T15:04:13.990Z,102032.22
2023-05-23T15:06:42.877Z,102024.78
2023-05-23T15:09:10.719Z,102011.25
2023-05-23T15:11:40.356Z,102017.88
2023-05-23T15:14:09.616Z,102002.66
2023-05-23T15:16:37.482Z,102007.47
2023-05-23T15:19:06.022Z,102020.19
2023-05-23T15:21:34.024Z,102015.81
2023-05-23T15:24:01.962Z,102012.59
2023-05-23T15:26:30.326Z,102012.25
2023-05-23T15:28:58.608Z,102013.72
2023-05-23T15:31:28.160Z,102017.34
2023-05-23T15:33:55.943Z,102018.19
2023-05-23T15:36:23.795Z,102017.72
2023-05-23T15:38:51.801Z,102005.84
2023-05-23T15:41:20.144Z,102019.06
2023-05-23T15:43:47.868Z,102021.59
2023-05-23T15:46:16.284Z,102024.53
2023-05-23T15:48:45.623Z,102015.34
2023-05-23T15:51:14.061Z,102032.09
2023-05-23T15:54:00.120Z,102021.84
2023-05-23T15:56:29.060Z,102031.34
2023-05-23T15:58:56.967Z,102034.63
2023-05-23T16:01:24.762Z,102036.28
2023-05-23T16:03:54.000Z,102038.13
2023-05-23T16:06:21.847Z,102029.56
2023-05-23T16:08:49.678Z,102017.28
2023-05-23T16:11:17.610Z,102029.38
2023-05-23T16:13:45.387Z,102005.31
2023-05-23T16:16:13.268Z,102010.00
2023-05-23T16:18:41.223Z,102003.97
2023-05-23T16:21:10.525Z,102008.94
2023-05-23T16:23:38.333Z,102006.63
2023-05-23T16:26:06.149Z,102004.97
2023-05-23T16:28:34.082Z,102001.72
2023-05-23T16:31:01.960Z,101991.00
2023-05-23T16:33:30.275Z,101989.00
2023-05-23T16:35:58.040Z,101996.84
2023-05-23T16:38:27.229Z,102005.97
2023-05-23T16:40:55.240Z,102000.94
2023-05-23T16:43:23.603Z,102003.91
2023-05-23T16:45:51.630Z,101999.41
2023-05-23T16:48:20.543Z,102007.53
2023-05-23T16:50:48.833Z,102030.13
2023-05-23T16:53:16.684Z,102035.81
2023-05-23T16:55:46.292Z,102031.31
2023-05-23T16:58:14.049Z,102038.91
2023-05-23T17:00:41.800Z,102031.91
2023-05-23T17:03:10.357Z,102037.63
2023-05-23T17:05:39.111Z,102047.56
2023-05-23T17:08:07.209Z,102051.25
2023-05-23T17:10:36.151Z,102047.84
2023-05-23T17:13:05.893Z,102048.28
2023-05-23T17:15:33.795Z,102058.66
2023-05-23T17:18:01.731Z,102058.69
2023-05-23T17:20:29.598Z,102055.75
2023-05-23T17:22:58.090Z,102050.25
2023-05-23T17:25:25.937Z,102048.69
2023-05-23T17:27:53.675Z,102058.28
2023-05-23T17:30:22.754Z,102063.31
2023-05-23T17:32:50.557Z,102051.66
2023-05-23T17:35:18.727Z,102053.09
2023-05-23T17:37:49.034Z,102055.75
2023-05-23T17:40:17.026Z,102059.03
2023-05-23T17:42:44.824Z,102049.28
2023-05-23T17:45:12.981Z,102041.47
2023-05-23T17:47:42.408Z,102045.34
2023-05-23T17:50:11.500Z,102048.16
2023-05-23T17:52:39.312Z,102042.06
2023-05-23T17:55:09.195Z,102050.34
2023-05-23T17:57:36.933Z,102046.63
2023-05-23T18:00:05.942Z,102049.78
2023-05-23T18:02:40.497Z,102043.34
2023-05-23T18:05:11.110Z,102048.66
2023-05-23T18:07:39.138Z,102050.09
2023-05-23T18:10:08.367Z,102054.75
2023-05-23T18:12:36.300Z,102053.28
2023-05-23T18:15:04.345Z,102058.84
2023-05-23T18:17:32.227Z,102049.84
2023-05-23T18:20:00.204Z,102054.91
2023-05-23T18:22:31.629Z,102055.91
2023-05-23T18:24:59.402Z,102059.88
2023-05-23T18:27:27.191Z,102061.41
2023-05-23T18:29:55.017Z,102071.13
2023-05-23T18:32:22.952Z,102064.38
2023-05-23T18:34:50.797Z,102071.75
2023-05-23T18:37:18.760Z,102074.41
2023-05-23T18:39:48.461Z,102061.84
2023-05-23T18:42:16.394Z,102069.31
2023-05-23T18:44:44.172Z,102070.41
2023-05-23T18:47:12.653Z,102071.44
2023-05-23T18:49:41.458Z,102082.13
2023-05-23T18:52:09.428Z,102084.84
2023-05-23T18:54:37.548Z,102092.28
2023-05-23T18:57:07.001Z,102109.97
2023-05-23T18:59:34.965Z,102098.09
2023-05-23T19:02:02.734Z,102103.84
2023-05-23T19:04:30.449Z,102112.75
2023-05-23T19:06:58.262Z,102113.34
2023-05-23T19:09:25.995Z,102126.09
2023-05-23T19:11:53.767Z,102131.97
2023-05-23T19:14:22.938Z,102123.47
2023-05-23T19:16:51.499Z,102134.47
2023-05-23T19:19:19.416Z,102135.69
2023-05-23T19:21:47.934Z,102149.88
2023-05-23T19:24:15.768Z,102150.38
2023-05-23T19:26:43.758Z,102160.47
2023-05-23T19:29:11.977Z,102147.66
2023-05-23T19:31:41.540Z,102160.41
2023-05-23T19:34:09.341Z,102166.56
2023-05-23T19:36:37.204Z,102171.34
2023-05-23T19:39:05.664Z,102175.97
2023-05-23T19:41:33.610Z,102171.19
2023-05-23T19:44:02.683Z,102163.03
2023-05-23T19:46:31.031Z,102172.31
2023-05-23T19:49:00.967Z,102190.19
2023-05-23T19:51:29.027Z,102187.47
2023-05-23T19:53:56.783Z,102189.84
2023-05-23T19:56:25.898Z,102192.88
2023-05-23T19:58:53.784Z,102199.13
2023-05-23T20:01:22.171Z,102204.41
2023-05-23T20:03:50.228Z,102202.41
2023-05-23T20:06:20.721Z,102222.09
2023-05-23T20:08:48.929Z,102218.81
2023-05-23T20:11:17.000Z,102225.31
2023-05-23T20:13:44.741Z,102220.97
2023-05-23T20:16:13.042Z,102227.75
2023-05-23T20:18:43.595Z,102223.25
2023-05-23T20:21:11.497Z,102234.25
2023-05-23T20:23:43.424Z,102239.63
2023-05-23T20:26:11.197Z,102249.69
2023-05-23T20:28:38.994Z,102249.13
2023-05-23T20:31:06.951Z,102250.16
2023-05-23T20:33:35.506Z,102260.25
2023-05-23T20:36:03.829Z,102257.91
2023-05-23T20:38:34.179Z,102262.31
2023-05-23T20:41:07.421Z,102266.69
2023-05-23T20:43:37.297Z,102266.63
2023-05-23T20:46:06.569Z,102269.75
2023-05-23T20:48:34.894Z,102265.84
2023-05-23T20:51:03.656Z,102277.81
2023-05-23T20:53:31.534Z,102278.97
2023-05-23T20:55:59.232Z,102273.72
2023-05-23T20:58:28.552Z,102282.91
2023-05-23T21:00:58.166Z,102278.78
2023-05-23T21:03:26.042Z,102271.66
2023-05-23T21:05:54.159Z,102276.00
2023-05-23T21:08:22.559Z,102290.38
2023-05-23T21:10:53.246Z,102285.66
2023-05-23T21:13:22.366Z,102285.94
2023-05-23T21:15:51.605Z,102296.16
2023-05-23T21:18:19.413Z,102294.06
2023-05-23T21:20:47.165Z,102293.28
2023-05-23T21:23:15.894Z,102288.06
2023-05-23T21:25:43.766Z,102302.41
2023-05-23T21:28:11.566Z,102298.91
2023-05-23T21:30:40.346Z,102291.41
2023-05-23T21:33:09.765Z,102303.03
2023-05-23T21:35:37.838Z,102308.03
2023-05-23T21:38:05.598Z,102306.38
2023-05-23T21:40:33.289Z,102319.09
2023-05-23T21:43:01.003Z,102299.97
2023-05-23T21:45:29.068Z,102307.25
2023-05-23T21:47:57.131Z,102304.75
2023-05-23T21:50:26.381Z,102301.94
2023-05-23T21:52:54.080Z,102300.34
2023-05-23T21:55:22.019Z,102308.78
2023-05-23T21:57:49.896Z,102298.84
2023-05-23T22:00:19.611Z,102292.94
2023-05-23T22:02:48.319Z,102312.19
2023-05-23T22:05:16.172Z,102315.50
2023-05-23T22:07:45.847Z,102299.59
2023-05-23T22:10:14.540Z,102314.16
2023-05-23T22:12:42.341Z,102322.41
2023-05-23T22:15:11.149Z,102317.03
2023-05-23T22:17:43.277Z,102316.19
2023-05-23T22:20:14.352Z,102316.22
2023-05-23T22:22:42.164Z,102319.47
2023-05-23T22:25:11.627Z,102313.56
2023-05-23T22:27:39.357Z,102308.25
2023-05-23T22:30:09.298Z,102310.97
2023-05-23T22:32:37.173Z,102316.03
2023-05-23T22:35:05.548Z,102307.03
2023-05-23T22:37:33.508Z,102304.84
2023-05-23T22:40:01.227Z,102308.97
2023-05-23T22:42:30.868Z,102317.63
2023-05-23T22:44:58.764Z,102308.97
2023-05-23T22:47:29.276Z,102326.88
2023-05-23T22:49:59.203Z,102324.16
2023-05-23T22:52:27.656Z,102320.00
2023-05-23T22:54:55.536Z,102324.66
2023-05-23T22:57:23.931Z,102329.97
2023-05-23T22:59:53.462Z,102327.84
2023-05-23T23:02:21.435Z,102324.56
2023-05-23T23:04:49.498Z,102325.97
2023-05-23T23:07:17.270Z,102321.03
2023-05-23T23:09:45.273Z,102325.00
2023-05-23T23:12:13.155Z,102328.69
2023-05-23T23:14:40.981Z,102327.44
2023-05-23T23:17:10.529Z,102321.44
2023-05-23T23:19:40.284Z,102334.19
2023-05-23T23:22:08.585Z,102326.78
2023-05-23T23:24:36.444Z,102333.13
2023-05-23T23:27:04.539Z,102331.78
2023-05-23T23:29:32.458Z,102335.78
2023-05-23T23:32:00.817Z,102335.38
2023-05-23T23:34:30.070Z,102339.25
2023-05-23T23:36:58.067Z,102337.88
2023-05-23T23:39:25.872Z,102339.41
2023-05-23T23:41:53.761Z,102335.94
2023-05-23T23:44:22.054Z,102336.16
2023-05-23T23:46:49.993Z,102345.53
2023-05-23T23:49:17.849Z,102343.63
2023-05-23T23:51:47.220Z,102343.94
2023-05-23T23:54:15.018Z,102346.69
2023-05-23T23:56:42.788Z,102355.63
2023-05-23T23:59:10.646Z,102356.94
